Time;durP1;ratioP1;P1;durP2;ratioP2;P2;SDS_P1;SDS_P2;PMS_P1;PMS_P2;Temp;Humidity;BMP_temperature;BMP_pressure;BME280_temperature;BME280_humidity;BME280_pressure;Samples;Min_cycle;Max_cycle;Signal;HPM_P1;HPM_P2
2022/06/17 00:01:47;;;;;;;8.48;7.68;;;16.00;99.90;;;;;;5048814;28;20033;-77
2022/06/17 00:04:13;;;;;;;12.85;7.82;;;15.90;99.90;;;;;;5046409;28;20075;-77
2022/06/17 00:07:07;;;;;;;7.90;7.10;;;15.80;99.90;;;;;;5046855;28;20847;-77
2022/06/17 00:09:35;;;;;;;6.55;5.85;;;15.90;99.90;;;;;;5044433;28;20384;-76
2022/06/17 00:12:01;;;;;;;7.22;5.75;;;15.80;99.90;;;;;;5051785;28;20029;-76
2022/06/17 00:14:31;;;;;;;8.25;6.43;;;15.70;99.90;;;;;;5057964;28;20152;-77
2022/06/17 00:16:57;;;;;;;9.50;6.65;;;15.70;99.90;;;;;;5046106;28;20410;-77
2022/06/17 00:19:23;;;;;;;8.10;6.50;;;15.50;99.90;;;;;;5046657;28;20100;-77
2022/06/17 00:21:52;;;;;;;8.52;7.03;;;15.40;99.90;;;;;;5030839;28;20087;-77
2022/06/17 00:24:22;;;;;;;8.98;7.10;;;15.40;99.90;;;;;;5049942;28;20170;-77
2022/06/17 00:26:48;;;;;;;9.43;7.32;;;15.30;99.90;;;;;;5050535;28;20040;-77
2022/06/17 00:29:17;;;;;;;9.30;6.85;;;15.20;99.90;;;;;;5045817;28;20037;-77
2022/06/17 00:31:43;;;;;;;9.18;7.15;;;15.20;99.90;;;;;;5048027;28;20029;-77
2022/06/17 00:34:09;;;;;;;8.35;7.35;;;15.20;99.90;;;;;;5048060;28;20033;-77
2022/06/17 00:36:36;;;;;;;8.75;6.40;;;15.20;99.90;;;;;;5061834;28;20040;-77
2022/06/17 00:39:03;;;;;;;9.20;6.55;;;15.20;99.90;;;;;;5046276;28;20253;-77
2022/06/17 00:41:35;;;;;;;8.77;6.82;;;15.10;99.90;;;;;;5046152;28;20124;-77
2022/06/17 00:44:13;;;;;;;11.40;7.10;;;15.00;99.90;;;;;;5047283;28;20060;-77
2022/06/17 00:46:49;;;;;;;10.88;7.63;;;15.00;99.90;;;;;;5034466;28;20044;-77
2022/06/17 00:49:14;;;;;;;9.25;7.80;;;14.90;99.90;;;;;;5047113;28;20116;-77
2022/06/17 00:52:00;;;;;;;9.77;7.30;;;14.80;99.90;;;;;;5045130;28;20136;-77
2022/06/17 00:54:34;;;;;;;10.98;7.32;;;15.00;99.90;;;;;;5046328;28;20087;-77
2022/06/17 00:57:00;;;;;;;11.20;8.18;;;14.90;99.90;;;;;;5045674;28;20025;-77
2022/06/17 00:59:26;;;;;;;11.40;8.15;;;14.90;99.90;;;;;;5030879;28;20515;-77
2022/06/17 01:02:05;;;;;;;11.73;8.38;;;14.90;99.90;;;;;;5046023;28;20402;-77
2022/06/17 01:04:48;;;;;;;12.45;8.70;;;14.90;99.90;;;;;;5046182;28;20056;-77
2022/06/17 01:07:15;;;;;;;11.32;9.75;;;14.90;99.90;;;;;;5044108;28;20037;-77
2022/06/17 01:09:57;;;;;;;10.65;9.25;;;14.90;99.90;;;;;;5046541;28;20033;-77
2022/06/17 01:12:27;;;;;;;10.68;8.73;;;14.90;99.90;;;;;;5045256;28;20060;-77
2022/06/17 01:14:54;;;;;;;11.65;9.10;;;14.90;99.90;;;;;;5045193;28;20032;-77
2022/06/17 01:17:21;;;;;;;10.93;9.45;;;14.90;99.90;;;;;;5046026;28;20072;-77
2022/06/17 01:19:57;;;;;;;11.30;9.73;;;14.90;99.90;;;;;;5047054;28;20049;-77
2022/06/17 01:22:26;;;;;;;12.25;9.35;;;15.00;99.90;;;;;;5044312;28;20045;-77
2022/06/17 01:25:14;;;;;;;11.48;9.40;;;14.90;99.90;;;;;;5029164;28;20044;-77
2022/06/17 01:27:43;;;;;;;14.02;9.65;;;14.80;99.90;;;;;;5045756;28;20048;-77
2022/06/17 01:30:12;;;;;;;10.40;9.30;;;14.90;99.90;;;;;;5048313;28;20040;-77
2022/06/17 01:33:01;;;;;;;10.98;9.32;;;14.80;99.90;;;;;;5048368;28;20041;-77
2022/06/17 01:35:33;;;;;;;12.57;10.00;;;14.90;99.90;;;;;;5044489;28;20112;-77
2022/06/17 01:37:59;;;;;;;11.77;9.85;;;14.90;99.90;;;;;;5028639;28;20025;-77
2022/06/17 01:40:28;;;;;;;10.88;9.32;;;14.90;99.90;;;;;;5045344;28;20041;-77
2022/06/17 01:42:54;;;;;;;12.52;9.63;;;14.80;99.90;;;;;;5043395;28;20033;-77
2022/06/17 01:45:20;;;;;;;10.40;9.15;;;14.80;99.90;;;;;;5045804;28;20467;-77
2022/06/17 01:47:46;;;;;;;10.73;9.02;;;14.90;99.90;;;;;;5047596;28;20116;-77
2022/06/17 01:50:15;;;;;;;11.00;8.88;;;14.90;99.90;;;;;;5045851;28;20479;-77
2022/06/17 01:52:54;;;;;;;11.70;9.57;;;14.80;99.90;;;;;;5045276;28;20025;-77
2022/06/17 01:55:40;;;;;;;10.52;9.43;;;14.80;99.90;;;;;;5044219;28;20068;-77
2022/06/17 01:58:20;;;;;;;11.05;8.80;;;14.80;99.90;;;;;;5043369;28;20029;-77
2022/06/17 02:00:46;;;;;;;11.48;9.48;;;14.80;99.90;;;;;;5045733;28;20160;-77
2022/06/17 02:03:24;;;;;;;11.07;9.05;;;14.80;99.90;;;;;;5047477;28;20511;-77
2022/06/17 02:05:55;;;;;;;9.90;8.52;;;14.70;99.90;;;;;;5044139;28;20043;-78
2022/06/17 02:08:21;;;;;;;11.57;8.65;;;14.70;99.90;;;;;;5044919;28;20041;-78
2022/06/17 02:10:49;;;;;;;10.35;8.95;;;14.70;99.90;;;;;;5044863;28;20116;-77
2022/06/17 02:13:16;;;;;;;10.27;8.80;;;14.60;99.90;;;;;;5028028;28;20383;-77
2022/06/17 02:15:43;;;;;;;11.18;8.95;;;14.60;99.90;;;;;;5044621;28;20025;-77
2022/06/17 02:18:15;;;;;;;10.43;9.32;;;14.60;99.90;;;;;;5044247;28;20060;-77
2022/06/17 02:20:41;;;;;;;10.75;9.38;;;14.60;99.90;;;;;;5029316;28;20500;-77
2022/06/17 02:23:06;;;;;;;12.02;9.82;;;14.60;99.90;;;;;;5044841;28;20052;-77
2022/06/17 02:25:40;;;;;;;9.85;8.63;;;14.60;99.90;;;;;;5044325;28;20037;-77
2022/06/17 02:28:08;;;;;;;10.23;9.13;;;14.60;99.90;;;;;;5044138;28;20059;-77
2022/06/17 02:30:34;;;;;;;12.20;9.30;;;14.60;99.90;;;;;;5028075;28;20049;-77
2022/06/17 02:33:03;;;;;;;12.27;8.88;;;14.50;99.90;;;;;;5046923;28;20040;-77
2022/06/17 02:35:59;;;;;;;10.82;9.57;;;14.50;99.90;;;;;;5044338;28;20388;-77
2022/06/17 02:38:30;;;;;;;9.98;8.63;;;14.50;99.90;;;;;;5041486;28;20036;-78
2022/06/17 02:41:05;;;;;;;10.93;8.52;;;14.50;99.90;;;;;;5042770;28;20036;-77
2022/06/17 02:43:34;;;;;;;11.25;8.60;;;14.50;99.90;;;;;;5060353;28;20136;-77
2022/06/17 02:46:05;;;;;;;10.43;8.18;;;14.50;99.90;;;;;;5043996;28;20049;-77
2022/06/17 02:48:38;;;;;;;10.20;9.05;;;14.40;99.90;;;;;;5044748;28;20051;-77
2022/06/17 02:51:04;;;;;;;11.23;9.32;;;14.40;99.90;;;;;;5041702;28;20123;-77
2022/06/17 02:53:34;;;;;;;11.85;9.35;;;14.40;99.90;;;;;;5042835;28;20159;-78
2022/06/17 02:56:04;;;;;;;14.20;9.18;;;14.40;99.90;;;;;;5045423;28;20045;-77
2022/06/17 02:59:06;;;;;;;11.27;9.23;;;14.30;99.90;;;;;;5044961;28;20126;-78
2022/06/17 03:01:34;;;;;;;10.73;8.35;;;14.30;99.90;;;;;;5044592;28;20128;-77
2022/06/17 03:04:01;;;;;;;10.38;8.93;;;14.20;99.90;;;;;;5046015;28;20559;-77
2022/06/17 03:06:36;;;;;;;12.57;9.40;;;14.20;99.90;;;;;;5044741;28;20150;-77
2022/06/17 03:09:23;;;;;;;10.52;9.43;;;14.20;99.90;;;;;;5044811;28;20048;-77
2022/06/17 03:11:55;;;;;;;11.05;9.65;;;14.20;99.90;;;;;;5044485;28;20039;-77
2022/06/17 03:14:23;;;;;;;9.23;8.32;;;14.20;99.90;;;;;;5043230;28;20380;-77
2022/06/17 03:16:53;;;;;;;12.05;8.80;;;14.20;99.90;;;;;;5044154;28;20107;-77
2022/06/17 03:19:22;;;;;;;10.48;8.20;;;14.20;99.90;;;;;;5045452;28;20461;-76
2022/06/17 03:21:47;;;;;;;9.20;8.23;;;14.20;99.90;;;;;;5044018;28;20041;-77
2022/06/17 03:24:38;;;;;;;9.00;7.93;;;14.30;99.90;;;;;;5043567;28;20044;-77
2022/06/17 03:27:29;;;;;;;11.35;8.27;;;14.30;99.90;;;;;;5031031;28;20116;-77
2022/06/17 03:29:59;;;;;;;9.80;8.52;;;14.30;99.90;;;;;;5034559;28;20044;-77
2022/06/17 03:32:36;;;;;;;10.23;8.48;;;14.40;99.90;;;;;;5050349;28;20041;-76
2022/06/17 03:35:02;;;;;;;12.27;8.30;;;14.40;99.90;;;;;;5041610;28;20084;-76
2022/06/17 03:37:38;;;;;;;9.88;8.38;;;14.50;99.90;;;;;;5048171;28;20047;-77
2022/06/17 03:40:13;;;;;;;9.45;8.45;;;14.50;99.90;;;;;;5030482;28;20033;-76
2022/06/17 03:43:05;;;;;;;11.88;8.32;;;14.60;99.90;;;;;;5046950;28;20040;-76
2022/06/17 03:45:44;;;;;;;10.52;8.10;;;14.60;99.90;;;;;;5039539;28;20048;-76
2022/06/17 03:48:37;;;;;;;9.82;8.00;;;14.60;99.90;;;;;;5049574;28;20043;-76
2022/06/17 03:51:03;;;;;;;10.10;7.53;;;14.70;99.90;;;;;;5046737;28;20494;-77
2022/06/17 03:53:36;;;;;;;11.82;7.75;;;14.70;99.90;;;;;;5047014;28;20041;-76
2022/06/17 03:56:07;;;;;;;11.85;7.97;;;14.70;99.90;;;;;;5044728;28;20037;-77
2022/06/17 03:58:33;;;;;;;12.70;8.13;;;14.70;99.90;;;;;;5049283;28;20043;-77
2022/06/17 04:01:01;;;;;;;9.75;7.80;;;14.70;99.90;;;;;;5044569;28;20056;-77
2022/06/17 04:03:33;;;;;;;10.77;7.15;;;14.80;99.90;;;;;;5052736;28;20076;-77
2022/06/17 04:06:06;;;;;;;8.18;7.38;;;14.90;99.90;;;;;;5052476;28;20558;-77
2022/06/17 04:08:32;;;;;;;8.82;7.65;;;14.90;99.90;;;;;;5053018;28;20037;-76
2022/06/17 04:10:58;;;;;;;10.80;7.45;;;15.00;99.90;;;;;;5037389;28;20037;-77
2022/06/17 04:13:27;;;;;;;9.73;7.30;;;15.10;99.90;;;;;;5052269;28;20036;-77
2022/06/17 04:16:07;;;;;;;9.18;7.22;;;15.10;99.90;;;;;;5046563;28;20037;-77
2022/06/17 04:18:35;;;;;;;9.90;6.70;;;15.20;99.90;;;;;;5047893;28;20036;-76
2022/06/17 04:21:05;;;;;;;9.77;6.60;;;15.30;99.90;;;;;;5062157;28;20086;-77
2022/06/17 04:23:34;;;;;;;8.35;6.63;;;15.30;99.90;;;;;;5045935;28;20045;-77
2022/06/17 04:26:23;;;;;;;8.68;7.25;;;15.30;99.90;;;;;;5046999;28;20048;-77
2022/06/17 04:28:55;;;;;;;7.93;6.95;;;15.30;99.90;;;;;;5045618;28;20166;-77
2022/06/17 04:31:23;;;;;;;10.35;6.60;;;15.30;99.90;;;;;;5046326;28;20395;-77
2022/06/17 04:34:23;;;;;;;8.93;7.00;;;15.30;99.90;;;;;;5045792;28;20504;-77
2022/06/17 04:37:02;;;;;;;9.35;7.10;;;15.30;99.90;;;;;;5043298;28;20080;-77
2022/06/17 04:39:44;;;;;;;10.55;7.25;;;15.40;99.90;;;;;;5046118;28;20041;-76
2022/06/17 04:42:29;;;;;;;10.60;7.10;;;15.40;99.90;;;;;;5047556;28;20037;-76
2022/06/17 04:44:55;;;;;;;10.38;7.10;;;15.40;99.90;;;;;;5044460;28;20033;-77
2022/06/17 04:47:21;;;;;;;13.90;7.07;;;15.40;99.90;;;;;;5046323;28;20039;-77
2022/06/17 04:49:54;;;;;;;9.00;7.55;;;15.50;99.90;;;;;;5048072;28;20729;-76
2022/06/17 04:52:36;;;;;;;8.57;6.65;;;15.50;99.90;;;;;;5046572;28;20041;-77
2022/06/17 04:55:05;;;;;;;9.18;6.80;;;15.50;99.90;;;;;;5048504;28;20029;-77
2022/06/17 04:57:31;;;;;;;9.27;6.65;;;15.50;99.90;;;;;;5047789;28;20041;-76
2022/06/17 04:59:58;;;;;;;9.20;6.50;;;15.50;99.90;;;;;;5050677;28;20040;-75
2022/06/17 05:02:27;;;;;;;8.23;6.93;;;15.60;99.90;;;;;;5049396;28;20461;-76
2022/06/17 05:04:57;;;;;;;12.80;6.50;;;15.60;99.90;;;;;;5049069;28;20056;-76
2022/06/17 05:07:24;;;;;;;9.27;6.57;;;15.70;99.90;;;;;;5048922;28;20040;-76
2022/06/17 05:10:18;;;;;;;9.70;6.55;;;15.70;99.90;;;;;;5048931;28;20041;-76
2022/06/17 05:12:52;;;;;;;12.23;6.60;;;15.70;99.90;;;;;;5045922;28;20045;-75
2022/06/17 05:15:21;;;;;;;10.13;6.25;;;15.80;99.90;;;;;;5047515;28;21835;-76
2022/06/17 05:17:47;;;;;;;7.63;5.97;;;15.80;99.90;;;;;;5047767;28;20039;-76
2022/06/17 05:20:15;;;;;;;9.82;5.72;;;15.90;99.90;;;;;;5048917;28;20036;-76
2022/06/17 05:22:57;;;;;;;11.02;6.20;;;15.90;99.90;;;;;;5046722;28;20610;-76
2022/06/17 05:25:26;;;;;;;11.05;6.30;;;16.00;99.90;;;;;;5049602;28;20041;-76
2022/06/17 05:27:51;;;;;;;9.52;5.95;;;16.00;99.90;;;;;;5047281;28;20033;-76
2022/06/17 05:30:17;;;;;;;9.35;6.28;;;16.00;99.90;;;;;;5047019;28;20045;-76
2022/06/17 05:32:47;;;;;;;9.05;6.95;;;16.00;99.90;;;;;;5045996;28;20028;-76
2022/06/17 05:35:13;;;;;;;9.57;6.65;;;16.10;99.90;;;;;;5044449;28;20128;-75
2022/06/17 05:37:39;;;;;;;10.00;6.72;;;16.00;99.90;;;;;;5046302;28;20604;-75
2022/06/17 05:40:06;;;;;;;8.30;6.68;;;16.10;99.90;;;;;;5047909;28;20065;-75
2022/06/17 05:42:31;;;;;;;10.77;6.82;;;16.10;99.90;;;;;;5045459;28;20127;-75
2022/06/17 05:44:57;;;;;;;10.48;6.93;;;16.10;99.90;;;;;;5045606;28;20141;-75
2022/06/17 05:47:22;;;;;;;9.48;6.95;;;16.20;99.90;;;;;;5048233;28;20041;-75
2022/06/17 05:49:48;;;;;;;7.97;6.45;;;16.30;99.90;;;;;;5048707;28;20037;-75
2022/06/17 05:52:14;;;;;;;9.75;7.18;;;16.30;99.90;;;;;;5047383;28;20037;-75
2022/06/17 05:54:40;;;;;;;10.63;7.10;;;16.40;99.90;;;;;;5045638;28;20056;-75
2022/06/17 05:57:05;;;;;;;9.38;6.82;;;16.50;99.90;;;;;;5045116;28;20056;-75
2022/06/17 05:59:31;;;;;;;9.73;6.50;;;16.60;99.90;;;;;;5038797;28;20048;-76
2022/06/17 06:01:57;;;;;;;64.10;8.68;;;16.60;99.90;;;;;;5045748;28;20747;-75
2022/06/17 06:04:22;;;;;;;9.75;6.80;;;16.70;99.90;;;;;;5046139;28;20549;-75
2022/06/17 06:06:48;;;;;;;9.95;7.22;;;16.80;99.90;;;;;;5047141;28;20568;-76
2022/06/17 06:09:14;;;;;;;9.77;7.18;;;16.80;99.90;;;;;;5045019;28;20037;-75
2022/06/17 06:11:39;;;;;;;11.70;6.90;;;16.90;99.90;;;;;;5047766;28;20048;-75
2022/06/17 06:14:05;;;;;;;8.60;7.32;;;16.90;99.90;;;;;;5045292;28;20033;-75
2022/06/17 06:16:31;;;;;;;9.38;7.03;;;16.90;99.90;;;;;;5048928;28;20041;-75
2022/06/17 06:18:56;;;;;;;10.20;6.80;;;16.90;99.90;;;;;;5044017;28;20505;-75
2022/06/17 06:21:22;;;;;;;12.38;7.30;;;17.00;99.90;;;;;;5044662;28;20036;-76
2022/06/17 06:23:48;;;;;;;9.98;7.05;;;17.00;99.90;;;;;;5046094;28;20065;-75
2022/06/17 06:26:17;;;;;;;11.70;6.80;;;17.00;99.90;;;;;;5046283;28;20471;-76
2022/06/17 06:28:43;;;;;;;9.75;6.43;;;17.10;99.90;;;;;;5046055;28;20033;-76
2022/06/17 06:31:28;;;;;;;9.13;7.22;;;17.10;99.90;;;;;;5046482;28;20044;-76
2022/06/17 06:33:54;;;;;;;10.90;7.32;;;17.20;99.90;;;;;;5044812;28;20036;-77
2022/06/17 06:36:19;;;;;;;12.90;7.20;;;17.30;99.90;;;;;;5044581;28;20052;-77
2022/06/17 06:38:45;;;;;;;8.52;6.47;;;17.30;99.90;;;;;;5049363;28;20037;-76
2022/06/17 06:41:11;;;;;;;10.95;7.32;;;17.50;99.90;;;;;;5046433;28;20049;-76
2022/06/17 06:43:36;;;;;;;13.77;7.82;;;17.60;99.90;;;;;;5045169;28;20425;-77
2022/06/17 06:46:11;;;;;;;12.90;7.30;;;17.70;99.90;;;;;;5043601;28;20032;-77
2022/06/17 06:48:38;;;;;;;11.23;7.15;;;17.80;99.90;;;;;;5043921;28;20036;-77
2022/06/17 06:51:03;;;;;;;11.95;7.43;;;18.00;99.90;;;;;;5046675;28;20040;-77
2022/06/17 06:53:29;;;;;;;10.23;6.95;;;18.10;99.90;;;;;;5046369;28;20037;-76
2022/06/17 06:55:55;;;;;;;11.50;7.45;;;18.20;99.90;;;;;;5045020;28;20104;-77
2022/06/17 06:58:23;;;;;;;10.85;7.40;;;18.30;99.90;;;;;;5042412;28;20040;-77
2022/06/17 07:00:51;;;;;;;11.75;6.88;;;18.40;99.90;;;;;;5047237;28;20033;-77
2022/06/17 07:03:18;;;;;;;12.32;7.00;;;18.50;99.90;;;;;;5046750;28;20494;-78
2022/06/17 07:05:47;;;;;;;11.60;6.97;;;18.60;99.90;;;;;;5044977;28;20033;-78
2022/06/17 07:08:14;;;;;;;10.85;7.45;;;18.70;99.90;;;;;;5046545;28;20033;-78
2022/06/17 07:10:41;;;;;;;11.07;7.20;;;18.80;99.90;;;;;;5043300;28;20651;-76
2022/06/17 07:13:08;;;;;;;12.55;6.93;;;18.90;99.90;;;;;;5047991;28;20068;-79
2022/06/17 07:15:35;;;;;;;10.93;7.03;;;18.90;99.90;;;;;;5045967;28;20512;-77
2022/06/17 07:18:14;;;;;;;9.77;6.68;;;18.90;99.90;;;;;;5045672;28;20041;-77
2022/06/17 07:20:43;;;;;;;9.50;6.63;;;19.00;99.90;;;;;;5044383;28;20083;-77
2022/06/17 07:23:15;;;;;;;9.25;6.88;;;19.00;99.90;;;;;;5046749;28;20521;-76
2022/06/17 07:25:41;;;;;;;10.32;6.60;;;19.00;99.90;;;;;;5045535;28;20519;-78
2022/06/17 07:28:07;;;;;;;13.95;6.82;;;19.10;99.90;;;;;;5044231;28;20060;-77
2022/06/17 07:30:34;;;;;;;8.45;6.30;;;19.10;99.90;;;;;;5046592;28;20037;-77
2022/06/17 07:33:00;;;;;;;11.35;7.13;;;19.20;99.90;;;;;;5043672;28;20655;-77
2022/06/17 07:35:27;;;;;;;10.05;6.60;;;19.30;99.90;;;;;;5047119;28;20044;-77
2022/06/17 07:40:36;;;;;;;;;;;19.60;99.90;;;;;;5045360;28;20044;-77
2022/06/17 07:43:03;;;;;;;8.40;6.82;;;19.70;99.90;;;;;;5043995;28;19917;-77
2022/06/17 07:45:31;;;;;;;7.55;6.10;;;19.80;99.90;;;;;;5044928;28;20041;-77
2022/06/17 07:47:58;;;;;;;11.18;6.55;;;19.90;99.90;;;;;;5042834;28;20049;-77
2022/06/17 07:50:30;;;;;;;8.30;6.40;;;20.00;99.90;;;;;;5046476;28;20033;-77
2022/06/17 07:52:56;;;;;;;8.90;5.97;;;20.10;99.90;;;;;;5048426;28;20029;-78
2022/06/17 07:55:21;;;;;;;8.85;6.32;;;20.00;99.90;;;;;;5046543;28;20052;-78
2022/06/17 07:57:47;;;;;;;8.63;6.07;;;20.20;99.90;;;;;;5043978;28;20041;-77
2022/06/17 08:00:33;;;;;;;8.52;6.47;;;20.30;99.90;;;;;;5045958;28;20048;-78
2022/06/17 08:02:59;;;;;;;9.15;6.10;;;20.40;99.90;;;;;;5044288;28;20060;-77
2022/06/17 08:05:25;;;;;;;10.27;6.10;;;20.50;99.90;;;;;;5043479;28;20498;-78
2022/06/17 08:07:52;;;;;;;7.75;6.10;;;20.60;99.90;;;;;;5045350;28;20426;-78
2022/06/17 08:10:23;;;;;;;8.65;6.18;;;20.60;99.90;;;;;;5043097;28;20041;-78
2022/06/17 08:12:49;;;;;;;10.05;5.95;;;20.60;99.90;;;;;;5046281;28;20064;-77
2022/06/17 08:15:15;;;;;;;7.05;5.85;;;20.60;99.90;;;;;;5051078;28;20122;-77
2022/06/17 08:17:41;;;;;;;10.63;6.32;;;20.60;99.90;;;;;;5051831;28;20037;-77
2022/06/17 08:20:22;;;;;;;9.52;6.50;;;20.60;99.90;;;;;;5052887;28;20063;-78
2022/06/17 08:22:48;;;;;;;8.32;5.80;;;20.90;99.90;;;;;;5053015;28;20044;-78
2022/06/17 08:25:14;;;;;;;8.07;5.30;;;21.10;99.90;;;;;;5050403;28;20494;-77
2022/06/17 08:27:42;;;;;;;9.07;5.70;;;21.40;99.90;;;;;;5054361;28;20037;-77
2022/06/17 08:30:08;;;;;;;9.88;6.63;;;21.60;99.90;;;;;;5052808;28;20041;-76
2022/06/17 08:32:46;;;;;;;9.50;6.80;;;21.80;99.90;;;;;;5054917;28;20040;-77
2022/06/17 08:35:25;;;;;;;7.88;5.88;;;21.90;99.90;;;;;;5053367;28;20029;-77
2022/06/17 08:38:05;;;;;;;12.75;6.70;;;22.10;99.90;;;;;;5054242;28;20037;-78
2022/06/17 08:40:50;;;;;;;8.80;5.90;;;22.10;99.90;;;;;;5054116;28;20048;-77
2022/06/17 08:43:30;;;;;;;7.70;5.97;;;22.20;99.90;;;;;;5049114;28;20178;-77
2022/06/17 08:46:32;;;;;;;9.07;5.63;;;22.20;99.90;;;;;;5051758;28;20051;-77
2022/06/17 08:49:25;;;;;;;12.52;5.80;;;22.20;99.90;;;;;;5053717;28;20135;-77
2022/06/17 08:52:25;;;;;;;7.70;5.28;;;22.20;99.90;;;;;;5040251;28;20069;-77
2022/06/17 08:55:31;;;;;;;7.90;5.10;;;22.20;99.90;;;;;;5045512;28;20546;-77
2022/06/17 08:58:24;;;;;;;9.50;4.65;;;22.30;99.90;;;;;;5047964;28;20040;-77
2022/06/17 09:01:06;;;;;;;9.32;5.35;;;22.30;99.90;;;;;;5047366;28;20075;-76
2022/06/17 09:03:49;;;;;;;8.23;5.13;;;22.30;99.90;;;;;;5048580;28;20051;-77
2022/06/17 09:06:49;;;;;;;8.80;4.70;;;22.30;99.90;;;;;;5048012;28;20040;-77
2022/06/17 09:09:51;;;;;;;6.70;4.07;;;22.40;99.90;;;;;;5047428;28;20048;-77
2022/06/17 09:12:50;;;;;;;8.40;4.43;;;22.40;99.90;;;;;;5047059;28;20040;-76
2022/06/17 09:15:29;;;;;;;7.32;4.60;;;22.30;99.90;;;;;;5049578;28;20144;-77
2022/06/17 09:18:10;;;;;;;8.10;4.82;;;22.30;99.90;;;;;;5051554;28;20594;-76
2022/06/17 09:20:41;;;;;;;7.35;4.72;;;22.30;99.90;;;;;;5051090;28;20076;-77
2022/06/17 09:23:09;;;;;;;11.93;5.63;;;22.30;99.90;;;;;;5053022;28;20519;-78
2022/06/17 09:25:40;;;;;;;12.65;5.15;;;22.30;99.90;;;;;;5051681;28;20063;-77
2022/06/17 09:28:12;;;;;;;8.82;4.53;;;22.30;99.90;;;;;;5048155;28;20469;-77
2022/06/17 09:30:44;;;;;;;8.35;4.53;;;22.40;99.90;;;;;;5051018;28;20056;-78
2022/06/17 09:33:37;;;;;;;7.43;4.68;;;22.50;99.90;;;;;;5052823;28;20028;-77
2022/06/17 09:36:16;;;;;;;8.13;4.38;;;22.70;99.90;;;;;;5047302;28;20033;-77
2022/06/17 09:38:59;;;;;;;6.43;4.15;;;22.80;99.90;;;;;;5054035;28;20060;-77
2022/06/17 09:41:34;;;;;;;6.55;4.32;;;23.00;99.90;;;;;;5055473;28;20116;-77
2022/06/17 09:44:09;;;;;;;9.20;4.07;;;23.30;99.90;;;;;;5052270;28;20060;-76
2022/06/17 09:47:17;;;;;;;8.02;4.13;;;23.70;99.90;;;;;;5053973;28;20076;-77
2022/06/17 09:50:08;;;;;;;9.65;4.20;;;23.90;99.90;;;;;;5051826;28;20064;-76
2022/06/17 09:52:39;;;;;;;8.02;3.83;;;24.10;99.90;;;;;;5042530;28;20049;-77
2022/06/17 09:55:16;;;;;;;6.82;4.05;;;24.00;99.90;;;;;;5050300;28;20061;-77
2022/06/17 09:57:57;;;;;;;6.63;3.58;;;24.00;99.90;;;;;;5048456;28;20041;-77
2022/06/17 10:00:28;;;;;;;7.80;3.70;;;23.90;99.90;;;;;;5048718;28;20556;-77
2022/06/17 10:03:11;;;;;;;8.27;3.38;;;23.80;99.90;;;;;;5048005;28;20071;-77
2022/06/17 10:05:54;;;;;;;7.90;3.67;;;23.90;99.90;;;;;;5050773;28;20505;-78
2022/06/17 10:08:27;;;;;;;6.20;3.60;;;23.90;99.90;;;;;;5052227;28;20201;-77
2022/06/17 10:11:21;;;;;;;26.40;4.25;;;23.90;99.90;;;;;;5048752;28;20045;-77
2022/06/17 10:13:50;;;;;;;;;;;23.90;99.90;;;;;;5050396;28;20062;-77
2022/06/17 10:19:28;;;;;;;7.25;3.22;;;23.90;99.90;;;;;;5047064;28;20123;-77
2022/06/17 10:22:05;;;;;;;6.43;3.60;;;23.90;99.90;;;;;;5044747;28;20028;-77
2022/06/17 10:24:34;;;;;;;5.80;3.45;;;23.90;99.90;;;;;;5051106;28;20037;-77
2022/06/17 10:27:11;;;;;;;6.70;3.08;;;23.80;99.90;;;;;;5051969;28;20033;-77
2022/06/17 10:30:03;;;;;;;8.60;3.78;;;23.80;99.90;;;;;;5051985;28;20351;-77
2022/06/17 10:32:32;;;;;;;6.57;3.05;;;23.90;99.90;;;;;;5051147;28;20040;-77
2022/06/17 10:35:01;;;;;;;6.93;3.47;;;23.90;99.90;;;;;;5049008;28;20701;-79
2022/06/17 10:37:29;;;;;;;5.88;3.28;;;23.90;99.90;;;;;;5051608;28;20085;-77
2022/06/17 10:39:56;;;;;;;5.25;3.55;;;24.10;99.90;;;;;;5052167;28;20043;-77
2022/06/17 10:42:23;;;;;;;7.00;3.70;;;24.10;99.90;;;;;;5051034;28;20052;-77
2022/06/17 10:44:52;;;;;;;8.13;3.90;;;24.20;99.90;;;;;;5051597;28;20047;-77
2022/06/17 10:47:36;;;;;;;7.65;3.97;;;24.20;99.90;;;;;;5052103;28;20416;-77
2022/06/17 10:50:22;;;;;;;7.43;3.50;;;24.20;99.90;;;;;;5049429;28;20498;-77
2022/06/17 10:53:20;;;;;;;8.02;4.10;;;24.40;99.90;;;;;;5043278;28;20085;-79
2022/06/17 10:55:49;;;;;;;7.82;4.15;;;24.60;99.90;;;;;;5024570;28;20045;-77
2022/06/17 10:58:20;;;;;;;6.00;3.60;;;24.70;99.90;;;;;;5051288;28;20044;-77
2022/06/17 11:00:53;;;;;;;5.75;3.72;;;24.80;99.90;;;;;;5049205;28;20048;-77
2022/06/17 11:03:35;;;;;;;8.77;3.97;;;24.90;99.90;;;;;;5049809;28;20033;-77
2022/06/17 11:06:09;;;;;;;8.48;4.00;;;25.00;99.90;;;;;;5050343;28;20064;-77
2022/06/17 11:08:55;;;;;;;6.28;3.97;;;25.00;99.90;;;;;;5051403;28;20787;-81
2022/06/17 11:14:50;;;;;;;7.47;4.38;;;25.10;99.10;;;;;;5048750;28;20515;-77
2022/06/17 11:17:18;;;;;;;7.35;4.60;;;25.20;99.90;;;;;;5053350;28;20049;-78
2022/06/17 11:19:47;;;;;;;8.07;4.60;;;25.30;99.50;;;;;;5051040;28;20040;-78
2022/06/17 11:22:33;;;;;;;9.30;4.30;;;25.40;99.30;;;;;;5050554;28;20045;-77
2022/06/17 11:25:04;;;;;;;11.80;4.05;;;25.60;99.60;;;;;;5049693;28;20037;-79
2022/06/17 11:27:41;;;;;;;9.35;4.60;;;25.70;99.10;;;;;;5046261;28;20041;-77
2022/06/17 11:30:29;;;;;;;6.32;4.65;;;25.70;99.20;;;;;;5066349;28;20145;-79
2022/06/17 11:32:57;;;;;;;6.93;5.05;;;25.60;98.20;;;;;;5033498;28;20174;-78
2022/06/17 11:35:34;;;;;;;6.68;4.70;;;25.70;98.70;;;;;;5045789;28;20376;-77
2022/06/17 11:38:10;;;;;;;11.98;5.35;;;25.70;98.20;;;;;;5042723;28;20049;-77
2022/06/17 11:40:50;;;;;;;7.93;3.88;;;25.70;97.80;;;;;;5044177;28;20541;-77
2022/06/17 11:43:27;;;;;;;9.68;4.50;;;25.90;98.90;;;;;;5047620;28;20388;-78
2022/06/17 11:45:53;;;;;;;8.80;4.10;;;26.20;98.30;;;;;;5049849;28;20040;-77
2022/06/17 11:48:20;;;;;;;8.60;4.60;;;26.70;98.70;;;;;;5054685;28;20486;-78
2022/06/17 11:51:07;;;;;;;6.53;4.25;;;27.20;97.80;;;;;;5039098;28;20045;-79
2022/06/17 11:53:47;;;;;;;6.45;3.90;;;27.50;97.10;;;;;;5053073;28;20502;-78
2022/06/17 11:56:46;;;;;;;9.40;4.22;;;27.60;96.90;;;;;;5056338;28;20040;-77
2022/06/17 11:59:21;;;;;;;5.90;3.50;;;27.50;95.90;;;;;;5055336;28;20037;-78
2022/06/17 12:02:03;;;;;;;8.52;4.35;;;27.50;95.80;;;;;;5053424;28;20490;-78
2022/06/17 12:04:34;;;;;;;5.90;3.72;;;27.50;95.40;;;;;;5053573;28;20040;-78
2022/06/17 12:07:00;;;;;;;6.03;3.78;;;27.60;96.00;;;;;;5050914;28;20071;-79
2022/06/17 12:09:25;;;;;;;7.60;3.33;;;27.70;95.50;;;;;;5051087;28;20068;-79
2022/06/17 12:11:55;;;;;;;6.70;3.70;;;27.90;95.10;;;;;;5055774;28;20040;-79
2022/06/17 12:14:35;;;;;;;4.70;3.20;;;28.20;95.20;;;;;;5056196;28;20112;-79
2022/06/17 12:17:01;;;;;;;7.72;3.50;;;28.30;95.10;;;;;;5056883;28;20115;-79
2022/06/17 12:19:26;;;;;;;6.38;3.40;;;28.20;93.90;;;;;;5056090;28;20198;-81
2022/06/17 12:22:03;;;;;;;6.88;3.60;;;28.30;93.40;;;;;;5054277;28;20065;-80
2022/06/17 12:24:47;;;;;;;5.80;3.40;;;28.00;92.80;;;;;;5056566;28;20043;-80
2022/06/17 12:27:26;;;;;;;8.38;3.17;;;28.00;92.70;;;;;;5058298;28;20612;-79
2022/06/17 12:30:12;;;;;;;8.52;3.30;;;28.30;94.00;;;;;;5054252;28;20093;-77
2022/06/17 12:32:41;;;;;;;9.07;3.05;;;28.60;92.80;;;;;;5058958;28;20029;-78
2022/06/17 12:35:10;;;;;;;7.13;3.72;;;28.80;93.50;;;;;;5045765;28;20036;-79
2022/06/17 12:37:55;;;;;;;8.85;4.05;;;28.90;92.90;;;;;;5059870;28;20415;-78
2022/06/17 12:40:23;;;;;;;7.72;3.50;;;29.00;92.20;;;;;;5061025;28;20037;-78
2022/06/17 12:42:55;;;;;;;7.95;3.40;;;29.10;91.90;;;;;;5063401;28;20060;-79
2022/06/17 12:45:50;;;;;;;7.25;3.90;;;29.10;92.20;;;;;;5062766;28;20063;-79
2022/06/17 12:48:49;;;;;;;8.05;4.28;;;29.00;91.60;;;;;;5050116;28;20546;-82
2022/06/17 12:54:59;;;;;;;12.95;4.28;;;28.70;90.70;;;;;;5028196;28;20049;-80
2022/06/17 12:57:32;;;;;;;5.15;4.10;;;29.00;92.00;;;;;;5048772;28;20133;-79
2022/06/17 13:00:04;;;;;;;8.05;3.58;;;29.10;91.10;;;;;;5061618;28;20044;-80
2022/06/17 13:03:22;;;;;;;5.07;3.33;;;29.10;91.50;;;;;;5060524;28;20049;-80
2022/06/17 13:05:48;;;;;;;8.73;3.90;;;29.20;91.50;;;;;;4999265;28;20046;-80
2022/06/17 13:08:26;;;;;;;6.22;4.28;;;29.00;91.20;;;;;;5048007;28;20048;-79
2022/06/17 13:11:11;;;;;;;7.10;3.40;;;28.90;90.70;;;;;;5062753;28;20040;-79
2022/06/17 13:13:52;;;;;;;6.38;3.95;;;28.60;92.00;;;;;;5063762;28;20044;-80
2022/06/17 13:16:28;;;;;;;7.28;4.60;;;28.30;91.00;;;;;;5059198;28;20127;-80
2022/06/17 13:19:09;;;;;;;5.90;3.60;;;28.10;90.70;;;;;;5074289;28;20045;-80
2022/06/17 13:21:49;;;;;;;5.05;3.58;;;28.10;90.80;;;;;;5068974;28;20556;-80
2022/06/17 13:24:29;;;;;;;3.67;3.10;;;27.90;91.00;;;;;;5071491;28;20050;-79
2022/06/17 13:27:15;;;;;;;6.60;3.63;;;27.90;91.40;;;;;;5049218;28;20415;-80
2022/06/17 13:29:44;;;;;;;7.28;3.30;;;27.80;91.20;;;;;;5060387;28;20110;-81